Santa Branca, Brazil
Current Conditions -  °F | °C
As of 8:00 PM on Monday 22 Dec 2014 (Local Time) from SBSJ Reporting Station
Overcast Overcast  
Wind Chill: 77°   Ceiling: 7000
Heat Index: 78°   Visibility: 6mi
Dew Point: 72°   Wind: 5mph
Humidity: 83%   Direction: 160°SSE
Pressure: 29.94"   Gusts: NA
Location:  23.4°S, 45.89°W
Report Text: SBSJ 222200Z 16004KT 9999 SCT015 OVC070 25/22 Q1014
Loading
Personal Weather Stations






























Interactive Weather Map New forecast layout! Learn more

10-Day Weather Forecast

Advertisements
Track Severe Weather on mobile